Avon, PA

1:43 PM EST on March 05, 2015 (GMT -0500)
APRSWXNET Lebanon PA US | Change Station
CLOSE
Current Station
Personal Weather Station
Location: Lebanon, PA
Elevation: 462 ft
Nearby Weather Stations
Active Advisory: Winter Storm Warning Active Notice: Public Information Statement

Elev 462 ft 40.32 °N, 76.44 °W | Updated 46 minutes ago

Snow
Snow
22 °F
Feels Like 22 °F
N
1
Wind Variable Wind from North
Gusts 3.0 mph

Today
High -- | Low -- °F
--% Chance of Precip.
Yesterday
High -- | Low -- °F
Precip. -- in
6:33 AM 6:01 PM
Full, 100% visible
Pressure 30.19 in
Visibility 1.2 miles
Clouds Overcast 2100 ft
Windchill 22 °F
Dew Point 20 °F
Humidity 92%
Rainfall in
Snow Depth Not available.
UV 2 out of 12
Pollen .60 out of 12
Air Quality Not available.
Flu Activity Not available.
SPECI KMUI 051839Z 35007KT 320V020 1 1/4SM -SN OVC021 M07/M12 A3019 RMK AO2A $

More Conditions Fewer Conditions

Pressure 30.19 in
Visibility 1.2 miles
Clouds Overcast 2100 ft
Windchill 22 °F
Dew Point 20 °F
Humidity 92%
Rainfall in
Snow Depth Not available.
UV 2 out of 12
Pollen .60 out of 12
Air Quality Not available.
Flu Activity Not available.
SPECI KMUI 051839Z 35007KT 320V020 1 1/4SM -SN OVC021 M07/M12 A3019 RMK AO2A $

More Conditions Fewer Conditions

10-Day Weather Forecast

Almanac

Astronomy

Mar. 05, 2015 Rise Set
Actual Time
Civil Twilight
Nautical Twilight
Astronomical Twilight
Moon
Length of Visible Light
Length of Day
Tomorrow will be .
, % of the Moon is Illuminated

Today's Extremes

State Highs State Lows

Community

WunderPhotos

Upload Photos

1,802,905 photos uploaded!

WunderBlogs® & News

Nearby

Air Quality

  Air Quality AQ Index Pollutant
Not available.

Snow Depth

Station Depth Elevation

Earthquake Activity

City Distance Mag. Time & Date
Minimum magnitude displayed is 2.5.

Coastal Water Temperatures

Place Temperature

Nearby Weather Stations

Winter Storm Warning
Statement as of 12:48 PM EST on March 05, 2015

... Winter Storm Warning remains in effect until 4 PM EST this
afternoon...

* hazard types... snow.

* Accumulations... snow accumulation of 4 to 8 inches... with
locally higher amounts over southern portions of the warning
area.

* Timing... snow... heavy at times will fall through mid afternoon
before tapering to scattered light snow showers toward Sundown.

* Impacts... hazardous travel.

Precautionary/preparedness actions...

Dangerous winter weather conditions are expected or occurring.
Use extreme caution if traveling. For the latest weather
information... go to weather.Gov/statecollege or monitor NOAA
Weather Radio.

Report snow or ice accumulation to the National Weather Service
State College by sending an email to ctp.Stormreports@noaa.Gov...
posting to the NWS State College facebook Page... or tweet
@nwsstatecollege with the hashtag c... T... p... W... x.